sensor_id;sensor_type;location;lat;lon;timestamp;P1;durP1;ratioP1;P2;durP2;ratioP2
18947;SDS011;9607;51.600;7.558;2023-04-25T00:00:46;19.15;;;9.50;;
18947;SDS011;9607;51.600;7.558;2023-04-25T00:03:13;24.63;;;10.65;;
18947;SDS011;9607;51.600;7.558;2023-04-25T00:05:41;26.10;;;10.95;;
18947;SDS011;9607;51.600;7.558;2023-04-25T00:08:10;21.75;;;10.15;;
18947;SDS011;9607;51.600;7.558;2023-04-25T00:10:37;24.30;;;10.20;;
18947;SDS011;9607;51.600;7.558;2023-04-25T00:13:04;22.83;;;9.63;;
18947;SDS011;9607;51.600;7.558;2023-04-25T00:15:31;23.40;;;9.13;;
18947;SDS011;9607;51.600;7.558;2023-04-25T00:17:58;20.52;;;9.88;;
18947;SDS011;9607;51.600;7.558;2023-04-25T00:20:24;21.48;;;9.23;;
18947;SDS011;9607;51.600;7.558;2023-04-25T00:22:51;19.38;;;9.63;;
18947;SDS011;9607;51.600;7.558;2023-04-25T00:25:20;22.23;;;10.02;;
18947;SDS011;9607;51.600;7.558;2023-04-25T00:27:47;22.45;;;11.02;;
18947;SDS011;9607;51.600;7.558;2023-04-25T00:30:14;19.33;;;9.30;;
18947;SDS011;9607;51.600;7.558;2023-04-25T00:32:41;22.38;;;9.57;;
18947;SDS011;9607;51.600;7.558;2023-04-25T00:35:08;19.52;;;9.50;;
18947;SDS011;9607;51.600;7.558;2023-04-25T00:37:35;17.80;;;9.23;;
18947;SDS011;9607;51.600;7.558;2023-04-25T00:40:04;15.63;;;8.07;;
18947;SDS011;9607;51.600;7.558;2023-04-25T00:42:34;14.30;;;8.48;;
18947;SDS011;9607;51.600;7.558;2023-04-25T00:45:02;16.85;;;8.55;;
18947;SDS011;9607;51.600;7.558;2023-04-25T00:47:32;18.08;;;8.68;;
18947;SDS011;9607;51.600;7.558;2023-04-25T00:49:59;13.13;;;7.78;;
18947;SDS011;9607;51.600;7.558;2023-04-25T00:52:26;15.10;;;8.02;;
18947;SDS011;9607;51.600;7.558;2023-04-25T00:54:53;15.88;;;8.18;;
18947;SDS011;9607;51.600;7.558;2023-04-25T00:57:20;13.35;;;7.63;;
18947;SDS011;9607;51.600;7.558;2023-04-25T00:59:48;17.23;;;7.97;;
18947;SDS011;9607;51.600;7.558;2023-04-25T01:02:17;18.83;;;8.45;;
18947;SDS011;9607;51.600;7.558;2023-04-25T01:04:45;16.33;;;7.82;;
18947;SDS011;9607;51.600;7.558;2023-04-25T01:07:13;17.08;;;7.90;;
18947;SDS011;9607;51.600;7.558;2023-04-25T01:09:41;14.40;;;8.00;;
18947;SDS011;9607;51.600;7.558;2023-04-25T01:12:08;15.07;;;8.32;;
18947;SDS011;9607;51.600;7.558;2023-04-25T01:14:35;11.10;;;7.60;;
18947;SDS011;9607;51.600;7.558;2023-04-25T01:17:04;10.63;;;6.93;;
18947;SDS011;9607;51.600;7.558;2023-04-25T01:19:32;16.00;;;8.13;;
18947;SDS011;9607;51.600;7.558;2023-04-25T01:22:00;15.77;;;7.75;;
18947;SDS011;9607;51.600;7.558;2023-04-25T01:24:28;11.10;;;7.43;;
18947;SDS011;9607;51.600;7.558;2023-04-25T01:26:55;17.38;;;7.57;;
18947;SDS011;9607;51.600;7.558;2023-04-25T01:29:23;12.88;;;7.20;;
18947;SDS011;9607;51.600;7.558;2023-04-25T01:31:50;10.68;;;6.85;;
18947;SDS011;9607;51.600;7.558;2023-04-25T01:34:18;12.40;;;7.35;;
18947;SDS011;9607;51.600;7.558;2023-04-25T01:36:45;14.27;;;7.22;;
18947;SDS011;9607;51.600;7.558;2023-04-25T01:39:15;16.58;;;8.02;;
18947;SDS011;9607;51.600;7.558;2023-04-25T01:41:42;12.02;;;7.80;;
18947;SDS011;9607;51.600;7.558;2023-04-25T01:44:09;10.88;;;7.47;;
18947;SDS011;9607;51.600;7.558;2023-04-25T01:46:36;15.80;;;7.95;;
18947;SDS011;9607;51.600;7.558;2023-04-25T01:49:03;14.75;;;6.65;;
18947;SDS011;9607;51.600;7.558;2023-04-25T01:51:30;13.85;;;7.68;;
18947;SDS011;9607;51.600;7.558;2023-04-25T01:53:57;14.07;;;7.38;;
18947;SDS011;9607;51.600;7.558;2023-04-25T01:56:27;10.40;;;6.45;;
18947;SDS011;9607;51.600;7.558;2023-04-25T01:58:57;14.70;;;7.65;;
18947;SDS011;9607;51.600;7.558;2023-04-25T02:01:24;16.27;;;7.78;;
18947;SDS011;9607;51.600;7.558;2023-04-25T02:03:51;13.30;;;8.18;;
18947;SDS011;9607;51.600;7.558;2023-04-25T02:06:17;21.20;;;8.45;;
18947;SDS011;9607;51.600;7.558;2023-04-25T02:08:44;16.33;;;9.45;;
18947;SDS011;9607;51.600;7.558;2023-04-25T02:11:11;17.50;;;9.25;;
18947;SDS011;9607;51.600;7.558;2023-04-25T02:13:39;16.35;;;8.60;;
18947;SDS011;9607;51.600;7.558;2023-04-25T02:16:06;15.00;;;8.77;;
18947;SDS011;9607;51.600;7.558;2023-04-25T02:18:33;15.90;;;8.93;;
18947;SDS011;9607;51.600;7.558;2023-04-25T02:21:02;11.70;;;7.97;;
18947;SDS011;9607;51.600;7.558;2023-04-25T02:23:29;16.75;;;7.88;;
18947;SDS011;9607;51.600;7.558;2023-04-25T02:25:56;15.15;;;8.07;;
18947;SDS011;9607;51.600;7.558;2023-04-25T02:28:23;13.15;;;7.90;;
18947;SDS011;9607;51.600;7.558;2023-04-25T02:30:51;17.55;;;8.38;;
18947;SDS011;9607;51.600;7.558;2023-04-25T02:33:18;18.33;;;8.32;;
18947;SDS011;9607;51.600;7.558;2023-04-25T02:35:46;19.67;;;8.27;;
18947;SDS011;9607;51.600;7.558;2023-04-25T02:38:13;15.98;;;8.38;;
18947;SDS011;9607;51.600;7.558;2023-04-25T02:40:39;14.65;;;7.30;;
18947;SDS011;9607;51.600;7.558;2023-04-25T02:43:07;17.75;;;7.88;;
18947;SDS011;9607;51.600;7.558;2023-04-25T02:45:33;11.65;;;8.15;;
18947;SDS011;9607;51.600;7.558;2023-04-25T02:48:02;18.13;;;7.82;;
18947;SDS011;9607;51.600;7.558;2023-04-25T02:50:29;15.43;;;8.30;;
18947;SDS011;9607;51.600;7.558;2023-04-25T02:52:56;19.75;;;8.93;;
18947;SDS011;9607;51.600;7.558;2023-04-25T02:55:23;18.30;;;9.77;;
18947;SDS011;9607;51.600;7.558;2023-04-25T02:57:51;22.40;;;9.27;;
18947;SDS011;9607;51.600;7.558;2023-04-25T03:00:20;21.10;;;9.57;;
18947;SDS011;9607;51.600;7.558;2023-04-25T03:02:47;20.20;;;8.55;;
18947;SDS011;9607;51.600;7.558;2023-04-25T03:05:16;19.50;;;9.65;;
18947;SDS011;9607;51.600;7.558;2023-04-25T03:07:43;21.42;;;9.60;;
18947;SDS011;9607;51.600;7.558;2023-04-25T03:10:10;15.52;;;8.45;;
18947;SDS011;9607;51.600;7.558;2023-04-25T03:12:38;21.02;;;10.20;;
18947;SDS011;9607;51.600;7.558;2023-04-25T03:15:05;23.20;;;10.27;;
18947;SDS011;9607;51.600;7.558;2023-04-25T03:17:33;22.27;;;9.57;;
18947;SDS011;9607;51.600;7.558;2023-04-25T03:20:01;25.27;;;11.15;;
18947;SDS011;9607;51.600;7.558;2023-04-25T03:22:31;18.33;;;9.35;;
18947;SDS011;9607;51.600;7.558;2023-04-25T03:24:58;20.65;;;9.68;;
18947;SDS011;9607;51.600;7.558;2023-04-25T03:27:25;19.90;;;8.75;;
18947;SDS011;9607;51.600;7.558;2023-04-25T03:29:52;21.73;;;9.60;;
18947;SDS011;9607;51.600;7.558;2023-04-25T03:32:18;25.95;;;9.77;;
18947;SDS011;9607;51.600;7.558;2023-04-25T03:34:45;15.77;;;8.05;;
18947;SDS011;9607;51.600;7.558;2023-04-25T03:37:14;20.58;;;8.95;;
18947;SDS011;9607;51.600;7.558;2023-04-25T03:39:42;21.77;;;9.02;;
18947;SDS011;9607;51.600;7.558;2023-04-25T03:42:09;21.70;;;9.45;;
18947;SDS011;9607;51.600;7.558;2023-04-25T03:44:36;31.10;;;10.75;;
18947;SDS011;9607;51.600;7.558;2023-04-25T03:47:03;19.85;;;9.75;;
18947;SDS011;9607;51.600;7.558;2023-04-25T03:49:30;22.83;;;9.85;;
18947;SDS011;9607;51.600;7.558;2023-04-25T03:51:58;21.05;;;8.98;;
18947;SDS011;9607;51.600;7.558;2023-04-25T03:54:25;22.15;;;9.55;;
18947;SDS011;9607;51.600;7.558;2023-04-25T03:56:53;23.42;;;8.45;;
18947;SDS011;9607;51.600;7.558;2023-04-25T03:59:20;26.33;;;9.75;;
18947;SDS011;9607;51.600;7.558;2023-04-25T04:01:47;25.33;;;9.43;;
18947;SDS011;9607;51.600;7.558;2023-04-25T04:04:14;21.20;;;8.73;;
18947;SDS011;9607;51.600;7.558;2023-04-25T04:06:41;21.58;;;8.80;;
18947;SDS011;9607;51.600;7.558;2023-04-25T04:09:08;24.20;;;9.48;;
18947;SDS011;9607;51.600;7.558;2023-04-25T04:11:36;28.95;;;9.45;;
18947;SDS011;9607;51.600;7.558;2023-04-25T04:14:04;24.35;;;10.02;;
18947;SDS011;9607;51.600;7.558;2023-04-25T04:16:31;23.45;;;9.68;;
18947;SDS011;9607;51.600;7.558;2023-04-25T04:18:58;23.45;;;9.18;;
18947;SDS011;9607;51.600;7.558;2023-04-25T04:21:25;18.95;;;8.32;;
18947;SDS011;9607;51.600;7.558;2023-04-25T04:23:52;21.23;;;9.02;;
18947;SDS011;9607;51.600;7.558;2023-04-25T04:26:19;29.92;;;9.70;;
18947;SDS011;9607;51.600;7.558;2023-04-25T04:28:48;23.10;;;9.43;;
18947;SDS011;9607;51.600;7.558;2023-04-25T04:31:18;21.15;;;9.05;;
18947;SDS011;9607;51.600;7.558;2023-04-25T04:33:45;19.25;;;8.50;;
18947;SDS011;9607;51.600;7.558;2023-04-25T04:36:12;17.35;;;8.52;;
18947;SDS011;9607;51.600;7.558;2023-04-25T04:38:40;23.63;;;9.30;;
18947;SDS011;9607;51.600;7.558;2023-04-25T04:41:08;20.83;;;8.90;;
18947;SDS011;9607;51.600;7.558;2023-04-25T04:43:36;20.35;;;8.50;;
18947;SDS011;9607;51.600;7.558;2023-04-25T04:46:04;22.33;;;9.30;;
18947;SDS011;9607;51.600;7.558;2023-04-25T04:48:32;17.92;;;8.82;;
18947;SDS011;9607;51.600;7.558;2023-04-25T04:50:59;27.95;;;9.45;;
18947;SDS011;9607;51.600;7.558;2023-04-25T04:53:26;21.70;;;9.60;;
18947;SDS011;9607;51.600;7.558;2023-04-25T04:55:53;15.80;;;7.00;;
18947;SDS011;9607;51.600;7.558;2023-04-25T04:58:20;18.02;;;7.82;;
18947;SDS011;9607;51.600;7.558;2023-04-25T05:00:47;14.30;;;6.25;;
18947;SDS011;9607;51.600;7.558;2023-04-25T05:03:14;25.55;;;8.18;;
18947;SDS011;9607;51.600;7.558;2023-04-25T05:05:42;18.45;;;7.18;;
18947;SDS011;9607;51.600;7.558;2023-04-25T05:08:10;22.02;;;7.50;;
18947;SDS011;9607;51.600;7.558;2023-04-25T05:10:37;13.82;;;6.15;;
18947;SDS011;9607;51.600;7.558;2023-04-25T05:13:05;21.95;;;7.25;;
18947;SDS011;9607;51.600;7.558;2023-04-25T05:15:32;15.45;;;6.40;;
18947;SDS011;9607;51.600;7.558;2023-04-25T05:17:58;20.88;;;6.50;;
18947;SDS011;9607;51.600;7.558;2023-04-25T05:20:26;20.42;;;6.50;;
18947;SDS011;9607;51.600;7.558;2023-04-25T05:22:54;18.85;;;6.25;;
18947;SDS011;9607;51.600;7.558;2023-04-25T05:25:21;14.05;;;5.57;;
18947;SDS011;9607;51.600;7.558;2023-04-25T05:27:48;13.13;;;5.10;;
18947;SDS011;9607;51.600;7.558;2023-04-25T05:30:16;14.73;;;5.57;;
18947;SDS011;9607;51.600;7.558;2023-04-25T05:32:42;18.17;;;5.07;;
18947;SDS011;9607;51.600;7.558;2023-04-25T05:35:10;17.38;;;6.15;;
18947;SDS011;9607;51.600;7.558;2023-04-25T05:37:37;21.52;;;5.80;;
18947;SDS011;9607;51.600;7.558;2023-04-25T05:40:06;14.60;;;4.93;;
18947;SDS011;9607;51.600;7.558;2023-04-25T05:42:34;14.20;;;4.80;;
18947;SDS011;9607;51.600;7.558;2023-04-25T05:45:01;15.98;;;6.25;;
18947;SDS011;9607;51.600;7.558;2023-04-25T05:47:29;18.88;;;5.38;;
18947;SDS011;9607;51.600;7.558;2023-04-25T05:49:56;17.77;;;4.88;;
18947;SDS011;9607;51.600;7.558;2023-04-25T05:52:23;16.15;;;4.65;;
18947;SDS011;9607;51.600;7.558;2023-04-25T05:54:50;16.35;;;4.65;;
18947;SDS011;9607;51.600;7.558;2023-04-25T05:57:22;11.80;;;4.70;;
18947;SDS011;9607;51.600;7.558;2023-04-25T05:59:50;12.57;;;5.18;;
18947;SDS011;9607;51.600;7.558;2023-04-25T06:02:18;18.25;;;5.53;;
18947;SDS011;9607;51.600;7.558;2023-04-25T06:04:45;11.20;;;3.75;;
18947;SDS011;9607;51.600;7.558;2023-04-25T06:07:12;15.88;;;5.00;;
18947;SDS011;9607;51.600;7.558;2023-04-25T06:09:39;21.38;;;5.05;;
18947;SDS011;9607;51.600;7.558;2023-04-25T06:12:06;16.48;;;5.05;;
18947;SDS011;9607;51.600;7.558;2023-04-25T06:14:34;14.85;;;5.03;;
18947;SDS011;9607;51.600;7.558;2023-04-25T06:17:03;14.88;;;5.20;;
18947;SDS011;9607;51.600;7.558;2023-04-25T06:19:33;14.32;;;4.47;;
18947;SDS011;9607;51.600;7.558;2023-04-25T06:22:00;18.55;;;5.38;;
18947;SDS011;9607;51.600;7.558;2023-04-25T06:24:27;16.52;;;5.95;;
18947;SDS011;9607;51.600;7.558;2023-04-25T06:26:54;17.52;;;5.00;;
18947;SDS011;9607;51.600;7.558;2023-04-25T06:29:21;16.20;;;5.32;;
18947;SDS011;9607;51.600;7.558;2023-04-25T06:31:49;14.13;;;5.07;;
18947;SDS011;9607;51.600;7.558;2023-04-25T06:34:17;20.55;;;5.70;;
18947;SDS011;9607;51.600;7.558;2023-04-25T06:36:43;18.00;;;5.60;;
18947;SDS011;9607;51.600;7.558;2023-04-25T06:39:10;12.82;;;4.93;;
18947;SDS011;9607;51.600;7.558;2023-04-25T06:41:37;18.17;;;6.28;;
18947;SDS011;9607;51.600;7.558;2023-04-25T06:44:04;14.30;;;4.60;;
18947;SDS011;9607;51.600;7.558;2023-04-25T06:46:31;14.10;;;4.32;;
18947;SDS011;9607;51.600;7.558;2023-04-25T06:48:59;14.60;;;4.57;;
18947;SDS011;9607;51.600;7.558;2023-04-25T06:51:26;18.38;;;5.55;;
18947;SDS011;9607;51.600;7.558;2023-04-25T06:53:54;13.52;;;4.15;;
18947;SDS011;9607;51.600;7.558;2023-04-25T06:56:21;23.15;;;5.63;;
18947;SDS011;9607;51.600;7.558;2023-04-25T06:58:48;14.73;;;4.50;;
18947;SDS011;9607;51.600;7.558;2023-04-25T07:01:15;13.07;;;4.70;;
18947;SDS011;9607;51.600;7.558;2023-04-25T07:03:42;18.00;;;5.15;;
18947;SDS011;9607;51.600;7.558;2023-04-25T07:06:10;16.58;;;5.13;;
18947;SDS011;9607;51.600;7.558;2023-04-25T07:08:37;16.48;;;3.92;;
18947;SDS011;9607;51.600;7.558;2023-04-25T07:11:03;10.18;;;3.70;;
18947;SDS011;9607;51.600;7.558;2023-04-25T07:13:30;10.65;;;3.97;;
18947;SDS011;9607;51.600;7.558;2023-04-25T07:15:57;16.15;;;4.53;;
18947;SDS011;9607;51.600;7.558;2023-04-25T07:18:24;16.15;;;3.88;;
18947;SDS011;9607;51.600;7.558;2023-04-25T07:20:51;14.25;;;3.63;;
18947;SDS011;9607;51.600;7.558;2023-04-25T07:23:19;15.52;;;3.95;;
18947;SDS011;9607;51.600;7.558;2023-04-25T07:25:46;17.73;;;4.43;;
18947;SDS011;9607;51.600;7.558;2023-04-25T07:28:13;12.73;;;4.10;;
18947;SDS011;9607;51.600;7.558;2023-04-25T07:30:40;15.43;;;4.18;;
18947;SDS011;9607;51.600;7.558;2023-04-25T07:33:07;15.82;;;4.15;;
18947;SDS011;9607;51.600;7.558;2023-04-25T07:35:33;10.65;;;4.32;;
18947;SDS011;9607;51.600;7.558;2023-04-25T07:38:01;13.43;;;4.03;;
18947;SDS011;9607;51.600;7.558;2023-04-25T07:40:29;16.55;;;4.18;;
18947;SDS011;9607;51.600;7.558;2023-04-25T07:42:56;11.70;;;4.00;;
18947;SDS011;9607;51.600;7.558;2023-04-25T07:45:22;15.10;;;4.10;;
18947;SDS011;9607;51.600;7.558;2023-04-25T07:47:49;17.75;;;4.15;;
18947;SDS011;9607;51.600;7.558;2023-04-25T07:50:17;11.77;;;3.85;;
18947;SDS011;9607;51.600;7.558;2023-04-25T07:52:44;12.00;;;3.60;;
18947;SDS011;9607;51.600;7.558;2023-04-25T07:55:11;10.55;;;2.95;;
18947;SDS011;9607;51.600;7.558;2023-04-25T07:57:39;10.80;;;3.60;;
18947;SDS011;9607;51.600;7.558;2023-04-25T08:00:07;8.80;;;3.33;;
18947;SDS011;9607;51.600;7.558;2023-04-25T08:02:36;16.95;;;3.80;;
18947;SDS011;9607;51.600;7.558;2023-04-25T08:05:03;10.75;;;3.97;;
18947;SDS011;9607;51.600;7.558;2023-04-25T08:07:33;12.63;;;3.42;;
18947;SDS011;9607;51.600;7.558;2023-04-25T08:10:00;11.82;;;3.00;;
18947;SDS011;9607;51.600;7.558;2023-04-25T08:12:26;10.90;;;3.65;;
18947;SDS011;9607;51.600;7.558;2023-04-25T08:14:55;10.95;;;2.97;;
18947;SDS011;9607;51.600;7.558;2023-04-25T08:17:21;15.57;;;3.42;;
18947;SDS011;9607;51.600;7.558;2023-04-25T08:19:48;11.38;;;3.67;;
18947;SDS011;9607;51.600;7.558;2023-04-25T08:22:15;12.02;;;2.92;;
18947;SDS011;9607;51.600;7.558;2023-04-25T08:24:42;9.55;;;3.08;;
18947;SDS011;9607;51.600;7.558;2023-04-25T08:27:09;11.25;;;2.70;;
18947;SDS011;9607;51.600;7.558;2023-04-25T08:29:36;16.10;;;2.95;;
18947;SDS011;9607;51.600;7.558;2023-04-25T08:32:04;9.80;;;3.03;;
18947;SDS011;9607;51.600;7.558;2023-04-25T08:34:31;11.38;;;2.63;;
18947;SDS011;9607;51.600;7.558;2023-04-25T08:36:58;14.10;;;3.20;;
18947;SDS011;9607;51.600;7.558;2023-04-25T08:39:25;13.10;;;3.45;;
18947;SDS011;9607;51.600;7.558;2023-04-25T08:41:52;8.02;;;2.50;;
18947;SDS011;9607;51.600;7.558;2023-04-25T08:44:19;13.68;;;3.75;;
18947;SDS011;9607;51.600;7.558;2023-04-25T08:46:46;12.82;;;2.95;;
18947;SDS011;9607;51.600;7.558;2023-04-25T08:49:17;10.15;;;3.20;;
18947;SDS011;9607;51.600;7.558;2023-04-25T08:51:45;9.05;;;2.28;;
18947;SDS011;9607;51.600;7.558;2023-04-25T08:54:13;7.20;;;2.40;;
18947;SDS011;9607;51.600;7.558;2023-04-25T08:56:41;7.80;;;2.63;;
18947;SDS011;9607;51.600;7.558;2023-04-25T08:59:11;13.40;;;3.53;;
18947;SDS011;9607;51.600;7.558;2023-04-25T09:01:38;8.77;;;2.40;;
18947;SDS011;9607;51.600;7.558;2023-04-25T09:04:05;7.15;;;2.63;;
18947;SDS011;9607;51.600;7.558;2023-04-25T09:06:34;9.38;;;2.25;;
18947;SDS011;9607;51.600;7.558;2023-04-25T09:09:02;10.00;;;2.65;;
18947;SDS011;9607;51.600;7.558;2023-04-25T09:11:30;5.20;;;1.92;;
18947;SDS011;9607;51.600;7.558;2023-04-25T09:14:14;9.93;;;2.10;;
18947;SDS011;9607;51.600;7.558;2023-04-25T09:16:58;12.82;;;2.60;;
18947;SDS011;9607;51.600;7.558;2023-04-25T09:19:27;9.18;;;2.40;;
18947;SDS011;9607;51.600;7.558;2023-04-25T09:21:57;6.18;;;1.95;;
18947;SDS011;9607;51.600;7.558;2023-04-25T09:24:31;10.10;;;2.38;;
18947;SDS011;9607;51.600;7.558;2023-04-25T09:27:02;8.80;;;2.38;;
18947;SDS011;9607;51.600;7.558;2023-04-25T09:29:30;10.05;;;2.25;;
18947;SDS011;9607;51.600;7.558;2023-04-25T09:34:52;9.50;;;2.03;;
18947;SDS011;9607;51.600;7.558;2023-04-25T09:37:23;10.07;;;2.15;;
18947;SDS011;9607;51.600;7.558;2023-04-25T09:39:53;6.70;;;1.80;;
18947;SDS011;9607;51.600;7.558;2023-04-25T09:42:24;8.93;;;1.92;;
18947;SDS011;9607;51.600;7.558;2023-04-25T09:44:53;9.05;;;2.50;;
18947;SDS011;9607;51.600;7.558;2023-04-25T09:47:22;9.85;;;2.42;;
18947;SDS011;9607;51.600;7.558;2023-04-25T09:49:50;7.15;;;2.05;;
18947;SDS011;9607;51.600;7.558;2023-04-25T09:52:20;10.25;;;2.88;;
18947;SDS011;9607;51.600;7.558;2023-04-25T09:54:49;5.90;;;1.40;;
18947;SDS011;9607;51.600;7.558;2023-04-25T09:57:18;5.20;;;1.48;;
18947;SDS011;9607;51.600;7.558;2023-04-25T09:59:46;7.50;;;1.60;;
18947;SDS011;9607;51.600;7.558;2023-04-25T10:02:15;6.72;;;2.00;;
18947;SDS011;9607;51.600;7.558;2023-04-25T10:04:44;8.48;;;1.70;;
18947;SDS011;9607;51.600;7.558;2023-04-25T10:07:13;4.03;;;1.50;;
18947;SDS011;9607;51.600;7.558;2023-04-25T10:09:41;10.10;;;3.05;;
18947;SDS011;9607;51.600;7.558;2023-04-25T10:12:12;8.52;;;1.70;;
18947;SDS011;9607;51.600;7.558;2023-04-25T10:14:39;6.28;;;1.60;;
18947;SDS011;9607;51.600;7.558;2023-04-25T10:17:06;12.63;;;2.00;;
18947;SDS011;9607;51.600;7.558;2023-04-25T10:19:36;7.25;;;1.88;;
18947;SDS011;9607;51.600;7.558;2023-04-25T10:22:04;7.50;;;1.63;;
18947;SDS011;9607;51.600;7.558;2023-04-25T10:24:33;7.18;;;1.67;;
18947;SDS011;9607;51.600;7.558;2023-04-25T10:27:02;6.60;;;1.40;;
18947;SDS011;9607;51.600;7.558;2023-04-25T10:29:30;4.47;;;1.50;;
18947;SDS011;9607;51.600;7.558;2023-04-25T10:31:57;4.15;;;1.55;;
18947;SDS011;9607;51.600;7.558;2023-04-25T10:34:24;5.60;;;1.55;;
18947;SDS011;9607;51.600;7.558;2023-04-25T10:37:04;4.63;;;1.58;;
18947;SDS011;9607;51.600;7.558;2023-04-25T10:39:34;6.95;;;1.73;;
18947;SDS011;9607;51.600;7.558;2023-04-25T10:42:01;8.00;;;2.03;;
18947;SDS011;9607;51.600;7.558;2023-04-25T10:44:32;4.47;;;2.17;;
18947;SDS011;9607;51.600;7.558;2023-04-25T10:47:00;8.63;;;2.30;;
18947;SDS011;9607;51.600;7.558;2023-04-25T10:49:31;8.25;;;1.88;;
18947;SDS011;9607;51.600;7.558;2023-04-25T10:52:14;4.43;;;1.48;;
18947;SDS011;9607;51.600;7.558;2023-04-25T10:54:51;6.13;;;1.77;;
18947;SDS011;9607;51.600;7.558;2023-04-25T10:57:29;7.95;;;2.08;;
18947;SDS011;9607;51.600;7.558;2023-04-25T11:00:04;6.18;;;2.17;;
18947;SDS011;9607;51.600;7.558;2023-04-25T11:02:36;5.93;;;1.80;;
18947;SDS011;9607;51.600;7.558;2023-04-25T11:05:04;5.18;;;1.73;;
18947;SDS011;9607;51.600;7.558;2023-04-25T11:07:33;4.88;;;1.92;;
18947;SDS011;9607;51.600;7.558;2023-04-25T11:10:10;5.03;;;1.45;;
18947;SDS011;9607;51.600;7.558;2023-04-25T11:12:37;8.70;;;2.20;;
18947;SDS011;9607;51.600;7.558;2023-04-25T11:15:06;6.00;;;1.80;;
18947;SDS011;9607;51.600;7.558;2023-04-25T11:17:35;5.63;;;1.80;;
18947;SDS011;9607;51.600;7.558;2023-04-25T11:20:02;3.72;;;1.27;;
18947;SDS011;9607;51.600;7.558;2023-04-25T11:22:34;7.50;;;2.00;;
18947;SDS011;9607;51.600;7.558;2023-04-25T11:25:04;5.75;;;1.52;;
18947;SDS011;9607;51.600;7.558;2023-04-25T11:27:32;4.80;;;1.73;;
18947;SDS011;9607;51.600;7.558;2023-04-25T11:30:10;4.80;;;1.20;;
18947;SDS011;9607;51.600;7.558;2023-04-25T11:32:39;3.35;;;1.10;;
18947;SDS011;9607;51.600;7.558;2023-04-25T11:35:07;2.08;;;0.70;;
18947;SDS011;9607;51.600;7.558;2023-04-25T11:37:34;3.53;;;0.90;;
18947;SDS011;9607;51.600;7.558;2023-04-25T11:40:02;4.20;;;0.80;;
18947;SDS011;9607;51.600;7.558;2023-04-25T11:42:30;3.53;;;1.20;;
18947;SDS011;9607;51.600;7.558;2023-04-25T11:44:57;4.68;;;1.35;;
18947;SDS011;9607;51.600;7.558;2023-04-25T11:47:28;5.05;;;1.15;;
18947;SDS011;9607;51.600;7.558;2023-04-25T11:49:57;2.60;;;1.10;;
18947;SDS011;9607;51.600;7.558;2023-04-25T11:52:34;3.05;;;1.08;;
18947;SDS011;9607;51.600;7.558;2023-04-25T11:55:03;2.30;;;1.10;;
18947;SDS011;9607;51.600;7.558;2023-04-25T11:57:32;2.13;;;0.80;;
18947;SDS011;9607;51.600;7.558;2023-04-25T12:00:04;1.58;;;0.70;;
18947;SDS011;9607;51.600;7.558;2023-04-25T12:02:37;2.45;;;0.80;;
18947;SDS011;9607;51.600;7.558;2023-04-25T12:05:07;2.15;;;0.93;;
18947;SDS011;9607;51.600;7.558;2023-04-25T12:07:34;2.00;;;0.80;;
18947;SDS011;9607;51.600;7.558;2023-04-25T12:10:04;2.53;;;0.85;;
18947;SDS011;9607;51.600;7.558;2023-04-25T12:12:32;4.75;;;1.08;;
18947;SDS011;9607;51.600;7.558;2023-04-25T12:15:07;3.95;;;0.80;;
18947;SDS011;9607;51.600;7.558;2023-04-25T12:17:35;1.98;;;1.00;;
18947;SDS011;9607;51.600;7.558;2023-04-25T12:20:08;3.10;;;1.00;;
18947;SDS011;9607;51.600;7.558;2023-04-25T12:22:36;2.67;;;1.00;;
18947;SDS011;9607;51.600;7.558;2023-04-25T12:25:03;2.78;;;1.05;;
18947;SDS011;9607;51.600;7.558;2023-04-25T12:27:31;3.88;;;1.25;;
18947;SDS011;9607;51.600;7.558;2023-04-25T12:29:58;2.58;;;1.17;;
18947;SDS011;9607;51.600;7.558;2023-04-25T12:32:25;3.22;;;0.85;;
18947;SDS011;9607;51.600;7.558;2023-04-25T12:34:53;2.72;;;0.90;;
18947;SDS011;9607;51.600;7.558;2023-04-25T12:37:20;4.22;;;0.95;;
18947;SDS011;9607;51.600;7.558;2023-04-25T12:39:47;3.35;;;0.90;;
18947;SDS011;9607;51.600;7.558;2023-04-25T12:42:14;2.70;;;0.80;;
18947;SDS011;9607;51.600;7.558;2023-04-25T12:44:41;4.72;;;1.20;;
18947;SDS011;9607;51.600;7.558;2023-04-25T12:47:07;4.88;;;0.98;;
18947;SDS011;9607;51.600;7.558;2023-04-25T12:49:34;4.47;;;1.13;;
18947;SDS011;9607;51.600;7.558;2023-04-25T12:52:03;4.15;;;1.30;;
18947;SDS011;9607;51.600;7.558;2023-04-25T12:54:31;4.18;;;1.13;;
18947;SDS011;9607;51.600;7.558;2023-04-25T12:57:00;6.95;;;1.65;;
18947;SDS011;9607;51.600;7.558;2023-04-25T12:59:27;5.35;;;1.85;;
18947;SDS011;9607;51.600;7.558;2023-04-25T13:01:54;4.68;;;1.60;;
18947;SDS011;9607;51.600;7.558;2023-04-25T13:04:21;7.53;;;1.50;;
18947;SDS011;9607;51.600;7.558;2023-04-25T13:06:48;3.70;;;1.40;;
18947;SDS011;9607;51.600;7.558;2023-04-25T13:09:16;4.32;;;1.38;;
18947;SDS011;9607;51.600;7.558;2023-04-25T13:11:43;5.10;;;1.20;;
18947;SDS011;9607;51.600;7.558;2023-04-25T13:14:10;2.35;;;0.88;;
18947;SDS011;9607;51.600;7.558;2023-04-25T13:16:37;3.30;;;1.13;;
18947;SDS011;9607;51.600;7.558;2023-04-25T13:19:04;3.55;;;1.40;;
18947;SDS011;9607;51.600;7.558;2023-04-25T13:21:33;2.83;;;0.95;;
18947;SDS011;9607;51.600;7.558;2023-04-25T13:24:00;2.22;;;0.90;;
18947;SDS011;9607;51.600;7.558;2023-04-25T13:26:28;2.70;;;1.02;;
18947;SDS011;9607;51.600;7.558;2023-04-25T13:28:55;2.55;;;0.90;;
18947;SDS011;9607;51.600;7.558;2023-04-25T13:31:22;4.13;;;0.98;;
18947;SDS011;9607;51.600;7.558;2023-04-25T13:33:49;4.13;;;1.38;;
18947;SDS011;9607;51.600;7.558;2023-04-25T13:36:16;3.17;;;0.98;;
18947;SDS011;9607;51.600;7.558;2023-04-25T13:38:43;2.13;;;0.88;;
18947;SDS011;9607;51.600;7.558;2023-04-25T13:41:12;4.53;;;1.10;;
18947;SDS011;9607;51.600;7.558;2023-04-25T13:43:44;3.53;;;1.00;;
18947;SDS011;9607;51.600;7.558;2023-04-25T13:46:12;2.05;;;0.82;;
18947;SDS011;9607;51.600;7.558;2023-04-25T13:48:40;4.00;;;0.63;;
18947;SDS011;9607;51.600;7.558;2023-04-25T13:51:12;3.67;;;1.30;;
18947;SDS011;9607;51.600;7.558;2023-04-25T13:53:40;2.25;;;1.00;;
18947;SDS011;9607;51.600;7.558;2023-04-25T13:56:07;2.03;;;0.80;;
18947;SDS011;9607;51.600;7.558;2023-04-25T13:58:34;3.55;;;0.68;;
18947;SDS011;9607;51.600;7.558;2023-04-25T14:01:02;2.83;;;0.85;;
18947;SDS011;9607;51.600;7.558;2023-04-25T14:03:29;2.47;;;0.90;;
18947;SDS011;9607;51.600;7.558;2023-04-25T14:05:56;4.70;;;0.90;;
18947;SDS011;9607;51.600;7.558;2023-04-25T14:08:23;3.67;;;1.27;;
18947;SDS011;9607;51.600;7.558;2023-04-25T14:10:50;6.10;;;1.40;;
18947;SDS011;9607;51.600;7.558;2023-04-25T14:13:17;3.13;;;1.10;;
18947;SDS011;9607;51.600;7.558;2023-04-25T14:15:44;5.82;;;1.40;;
18947;SDS011;9607;51.600;7.558;2023-04-25T14:18:13;6.68;;;1.40;;
18947;SDS011;9607;51.600;7.558;2023-04-25T14:20:39;3.38;;;1.23;;
18947;SDS011;9607;51.600;7.558;2023-04-25T14:23:06;3.65;;;1.40;;
18947;SDS011;9607;51.600;7.558;2023-04-25T14:25:33;3.17;;;0.80;;
18947;SDS011;9607;51.600;7.558;2023-04-25T14:28:00;4.20;;;1.38;;
18947;SDS011;9607;51.600;7.558;2023-04-25T14:30:27;5.78;;;1.45;;
18947;SDS011;9607;51.600;7.558;2023-04-25T14:32:54;2.28;;;1.02;;
18947;SDS011;9607;51.600;7.558;2023-04-25T14:35:22;3.45;;;1.35;;
18947;SDS011;9607;51.600;7.558;2023-04-25T14:37:49;3.05;;;1.02;;
18947;SDS011;9607;51.600;7.558;2023-04-25T14:40:16;3.15;;;0.95;;
18947;SDS011;9607;51.600;7.558;2023-04-25T14:42:43;2.03;;;0.90;;
18947;SDS011;9607;51.600;7.558;2023-04-25T14:45:10;2.63;;;0.88;;
18947;SDS011;9607;51.600;7.558;2023-04-25T14:47:37;1.48;;;0.85;;
18947;SDS011;9607;51.600;7.558;2023-04-25T14:50:05;2.78;;;1.10;;
18947;SDS011;9607;51.600;7.558;2023-04-25T14:52:34;2.70;;;1.30;;
18947;SDS011;9607;51.600;7.558;2023-04-25T14:55:02;3.72;;;1.10;;
18947;SDS011;9607;51.600;7.558;2023-04-25T14:57:30;4.03;;;1.40;;
18947;SDS011;9607;51.600;7.558;2023-04-25T14:59:57;5.05;;;1.23;;